Time;durP1;ratioP1;P1;durP2;ratioP2;P2;SDS_P1;SDS_P2;PMS_P1;PMS_P2;Temp;Humidity;BMP_temperature;BMP_pressure;BME280_temperature;BME280_humidity;BME280_pressure;Samples;Min_cycle;Max_cycle;Signal;HPM_P1;HPM_P2
2023/09/13 00:02:00;;;;;;;10.13;5.75;;;;;;;;;;5015292;28;98570;-86
2023/09/13 00:04:26;;;;;;;11.20;6.25;;;;;;;;;;5007152;28;99306;-86
2023/09/13 00:06:53;;;;;;;11.45;5.35;;;;;;;;;;4987218;28;98531;-85
2023/09/13 00:09:20;;;;;;;14.77;8.48;;;;;;;;;;5005312;28;98880;-86
2023/09/13 00:11:47;;;;;;;14.95;8.20;;;;;;;;;;5001602;28;99438;-84
2023/09/13 00:14:13;;;;;;;13.38;8.13;;;;;;;;;;5007492;28;98533;-84
2023/09/13 00:16:40;;;;;;;13.35;7.75;;;;;;;;;;5007596;28;99262;-85
2023/09/13 00:19:07;;;;;;;10.10;5.47;;;;;;;;;;5002048;28;99879;-85
2023/09/13 00:21:33;;;;;;;8.93;4.10;;;;;;;;;;5011490;28;98525;-84
2023/09/13 00:24:00;;;;;;;10.93;4.18;;;;;;;;;;5006055;28;99167;-85
2023/09/13 00:26:26;;;;;;;8.70;3.70;;;;;;;;;;4988642;28;99034;-84
2023/09/13 00:28:53;;;;;;;11.90;3.92;;;;;;;;;;4969876;28;101965;-85
2023/09/13 00:31:19;;;;;;;10.57;4.20;;;;;;;;;;5007435;28;98770;-85
2023/09/13 00:33:46;;;;;;;12.82;6.05;;;;;;;;;;4990080;28;98188;-85
2023/09/13 00:36:13;;;;;;;13.13;7.18;;;;;;;;;;5009039;28;98438;-85
2023/09/13 00:38:40;;;;;;;12.23;6.30;;;;;;;;;;5014085;28;98444;-85
2023/09/13 00:41:06;;;;;;;10.27;4.13;;;;;;;;;;5013773;28;99357;-85
2023/09/13 00:43:33;;;;;;;10.30;4.38;;;;;;;;;;5008073;28;98516;-85
2023/09/13 00:45:59;;;;;;;8.25;4.18;;;;;;;;;;5008049;28;98530;-85
2023/09/13 00:48:28;;;;;;;7.95;3.67;;;;;;;;;;4979499;28;101631;-85
2023/09/13 00:50:55;;;;;;;7.25;3.67;;;;;;;;;;5011251;28;99300;-85
2023/09/13 00:53:23;;;;;;;9.48;3.92;;;;;;;;;;4993284;28;98586;-86
2023/09/13 00:55:51;;;;;;;8.68;3.55;;;;;;;;;;4990904;28;100047;-86
2023/09/13 00:58:18;;;;;;;10.80;4.00;;;;;;;;;;5008542;28;98493;-85
2023/09/13 01:00:47;;;;;;;8.73;3.92;;;;;;;;;;5006711;28;98505;-85
2023/09/13 01:03:14;;;;;;;8.02;3.55;;;;;;;;;;4985945;28;101520;-86
2023/09/13 01:05:43;;;;;;;9.60;3.88;;;;;;;;;;4992249;28;102653;-86
2023/09/13 01:08:09;;;;;;;7.80;3.80;;;;;;;;;;5007903;28;100067;-86
2023/09/13 01:10:37;;;;;;;10.10;3.70;;;;;;;;;;4988759;28;102142;-86
2023/09/13 01:13:03;;;;;;;8.98;4.13;;;;;;;;;;4997574;28;98516;-85
2023/09/13 01:15:31;;;;;;;7.65;3.85;;;;;;;;;;5007701;28;98939;-86
2023/09/13 01:18:01;;;;;;;8.77;4.18;;;;;;;;;;5005211;28;99692;-85
2023/09/13 01:20:48;;;;;;;9.27;3.78;;;;;;;;;;5007737;28;99190;-86
2023/09/13 01:23:15;;;;;;;9.10;4.13;;;;;;;;;;5007912;28;99572;-87
2023/09/13 01:25:54;;;;;;;8.35;4.15;;;;;;;;;;5006969;28;99188;-86
2023/09/13 01:28:39;;;;;;;9.82;3.83;;;;;;;;;;4992626;28;99025;-86
2023/09/13 01:31:07;;;;;;;9.75;3.50;;;;;;;;;;4988947;28;99936;-86
2023/09/13 01:33:34;;;;;;;7.75;3.40;;;;;;;;;;4971856;28;98739;-86
2023/09/13 01:36:00;;;;;;;8.55;3.45;;;;;;;;;;4988745;28;102042;-86
2023/09/13 01:38:28;;;;;;;7.90;3.50;;;;;;;;;;4988599;28;105115;-86
2023/09/13 01:41:00;;;;;;;7.85;3.42;;;;;;;;;;5007243;28;98529;-86
2023/09/13 01:43:26;;;;;;;7.63;3.40;;;;;;;;;;4972810;28;101449;-86
2023/09/13 01:45:53;;;;;;;9.13;3.28;;;;;;;;;;5001627;28;99184;-86
2023/09/13 01:48:20;;;;;;;9.07;3.50;;;;;;;;;;4973728;28;97826;-87
2023/09/13 01:50:47;;;;;;;8.48;3.30;;;;;;;;;;4992407;28;101272;-87
2023/09/13 01:53:14;;;;;;;7.45;3.38;;;;;;;;;;5008266;28;98881;-87
2023/09/13 01:55:40;;;;;;;8.02;3.20;;;;;;;;;;4988220;28;100406;-87
2023/09/13 01:58:07;;;;;;;9.20;3.47;;;;;;;;;;4988152;28;101987;-86
2023/09/13 02:00:33;;;;;;;6.60;3.22;;;;;;;;;;4989376;28;99002;-85
2023/09/13 02:03:00;;;;;;;7.40;3.40;;;;;;;;;;4988534;28;98791;-86
2023/09/13 02:05:26;;;;;;;10.43;3.13;;;;;;;;;;4987798;28;101612;-86
2023/09/13 02:07:53;;;;;;;7.07;3.03;;;;;;;;;;4988070;28;98498;-87
2023/09/13 02:10:20;;;;;;;6.75;3.20;;;;;;;;;;5009551;28;98929;-86
2023/09/13 02:12:47;;;;;;;6.88;2.88;;;;;;;;;;5004826;28;97761;-86
2023/09/13 02:15:13;;;;;;;7.00;2.92;;;;;;;;;;5005866;28;98514;-86
2023/09/13 02:17:40;;;;;;;6.90;3.08;;;;;;;;;;5003902;28;99744;-87
2023/09/13 02:20:07;;;;;;;;;;;;;;;;;;4968529;28;99547;-87
2023/09/13 02:22:33;;;;;;;8.20;3.45;;;;;;;;;;4989546;28;119331;-87
2023/09/13 02:25:00;;;;;;;6.38;2.83;;;;;;;;;;4995836;28;99031;-86
2023/09/13 02:27:28;;;;;;;6.47;2.90;;;;;;;;;;5001170;28;98514;-87
2023/09/13 02:29:54;;;;;;;6.97;2.92;;;;;;;;;;5005446;28;98885;-86
2023/09/13 02:32:21;;;;;;;7.72;3.13;;;;;;;;;;5013664;28;99155;-87
2023/09/13 02:34:47;;;;;;;7.70;3.10;;;;;;;;;;5008110;28;100056;-86
2023/09/13 02:37:14;;;;;;;7.05;3.03;;;;;;;;;;4988235;28;100894;-86
2023/09/13 02:39:42;;;;;;;6.60;2.78;;;;;;;;;;4974798;28;99220;-86
2023/09/13 02:42:09;;;;;;;7.22;3.17;;;;;;;;;;4988609;28;99812;-86
2023/09/13 02:44:35;;;;;;;7.55;3.30;;;;;;;;;;5005167;28;100112;-87
2023/09/13 02:47:02;;;;;;;7.93;4.43;;;;;;;;;;5006786;28;99055;-86
2023/09/13 02:49:29;;;;;;;6.47;2.90;;;;;;;;;;4987919;28;99752;-86
2023/09/13 02:51:56;;;;;;;7.40;3.53;;;;;;;;;;4987578;28;102804;-87
2023/09/13 02:54:24;;;;;;;7.75;3.55;;;;;;;;;;4991622;28;99007;-86
2023/09/13 02:56:52;;;;;;;9.35;3.60;;;;;;;;;;4971494;28;102293;-86
2023/09/13 02:59:19;;;;;;;9.30;3.92;;;;;;;;;;4989321;28;98667;-86
2023/09/13 03:01:47;;;;;;;9.10;4.50;;;;;;;;;;4988481;28;101489;-86
2023/09/13 03:04:14;;;;;;;9.00;3.55;;;;;;;;;;4971072;28;101482;-86
2023/09/13 03:06:41;;;;;;;10.48;4.35;;;;;;;;;;4987716;28;98578;-86
2023/09/13 03:09:07;;;;;;;9.07;4.25;;;;;;;;;;4987190;28;101922;-86
2023/09/13 03:11:35;;;;;;;9.68;4.57;;;;;;;;;;4989337;28;102261;-86
2023/09/13 03:14:03;;;;;;;7.68;3.80;;;;;;;;;;4992565;28;99079;-86
2023/09/13 03:16:29;;;;;;;9.35;4.20;;;;;;;;;;4997795;28;100237;-86
2023/09/13 03:18:57;;;;;;;9.25;4.40;;;;;;;;;;5015581;28;98527;-86
2023/09/13 03:21:30;;;;;;;11.40;4.78;;;;;;;;;;4970713;28;101951;-86
2023/09/13 03:23:56;;;;;;;9.93;4.70;;;;;;;;;;4990077;28;101914;-86
2023/09/13 03:26:24;;;;;;;11.80;5.32;;;;;;;;;;5008556;28;97725;-86
2023/09/13 03:28:54;;;;;;;10.88;5.40;;;;;;;;;;4973833;28;100271;-86
2023/09/13 03:31:22;;;;;;;13.98;7.00;;;;;;;;;;4972413;28;101664;-86
2023/09/13 03:33:49;;;;;;;10.68;6.30;;;;;;;;;;5004823;28;99330;-86
2023/09/13 03:36:17;;;;;;;11.57;5.97;;;;;;;;;;4987501;28;102020;-87
2023/09/13 03:38:47;;;;;;;11.80;6.90;;;;;;;;;;4990713;28;102140;-87
2023/09/13 03:41:16;;;;;;;11.35;5.55;;;;;;;;;;4987500;28;101841;-87
2023/09/13 03:43:43;;;;;;;12.77;6.65;;;;;;;;;;5005370;28;99339;-87
2023/09/13 03:46:10;;;;;;;12.65;6.40;;;;;;;;;;5006364;28;98634;-87
2023/09/13 03:48:37;;;;;;;11.27;6.25;;;;;;;;;;4961892;28;101032;-87
2023/09/13 03:51:05;;;;;;;13.07;7.60;;;;;;;;;;4979259;28;99902;-86
2023/09/13 03:53:31;;;;;;;17.48;11.02;;;;;;;;;;5007687;28;98523;-86
2023/09/13 03:55:59;;;;;;;14.75;8.65;;;;;;;;;;4989595;28;101291;-86
2023/09/13 03:58:26;;;;;;;15.65;8.82;;;;;;;;;;4990460;28;100942;-85
2023/09/13 04:00:53;;;;;;;12.93;7.20;;;;;;;;;;5014643;28;98816;-86
2023/09/13 04:03:20;;;;;;;12.00;6.85;;;;;;;;;;5015908;28;99732;-86
2023/09/13 04:05:47;;;;;;;;;;;;;;;;;;5002348;28;98552;-85
2023/09/13 04:08:13;;;;;;;19.15;12.20;;;;;;;;;;5017097;28;116515;-88
2023/09/13 04:10:40;;;;;;;12.07;6.35;;;;;;;;;;4994506;28;101919;-87
2023/09/13 04:13:06;;;;;;;18.80;11.77;;;;;;;;;;5029697;28;98574;-85
2023/09/13 04:15:34;;;;;;;12.25;6.82;;;;;;;;;;5015160;28;101345;-85
2023/09/13 04:18:00;;;;;;;14.30;8.40;;;;;;;;;;5012459;28;100414;-85
2023/09/13 04:20:27;;;;;;;19.35;11.43;;;;;;;;;;5036972;27;98329;-86
2023/09/13 04:22:53;;;;;;;14.38;9.13;;;;;;;;;;5031765;27;98963;-85
2023/09/13 04:25:20;;;;;;;22.85;13.98;;;;;;;;;;5015747;28;97789;-84
2023/09/13 04:27:49;;;;;;;14.52;8.52;;;;;;;;;;5015466;27;101044;-86
2023/09/13 04:30:16;;;;;;;23.98;14.07;;;;;;;;;;5015798;28;98528;-86
2023/09/13 04:32:43;;;;;;;18.48;9.95;;;;;;;;;;5011741;28;97774;-85
2023/09/13 04:35:12;;;;;;;15.90;9.35;;;;;;;;;;4997721;28;100904;-86
2023/09/13 04:37:39;;;;;;;17.40;9.95;;;;;;;;;;4987252;28;101722;-85
2023/09/13 04:40:06;;;;;;;19.70;11.63;;;;;;;;;;4987262;28;98407;-85
2023/09/13 04:42:55;;;;;;;14.98;8.93;;;;;;;;;;4989598;28;100915;-86
2023/09/13 04:45:22;;;;;;;20.75;11.93;;;;;;;;;;4971002;28;98949;-87
2023/09/13 04:47:49;;;;;;;16.13;9.32;;;;;;;;;;4987525;28;99171;-87
2023/09/13 04:50:16;;;;;;;22.88;13.15;;;;;;;;;;4987078;28;100392;-86
2023/09/13 04:52:42;;;;;;;14.40;7.55;;;;;;;;;;4977871;28;98635;-86
2023/09/13 04:55:09;;;;;;;15.57;8.02;;;;;;;;;;5006549;28;100637;-87
2023/09/13 04:57:36;;;;;;;16.58;8.20;;;;;;;;;;4963974;28;100371;-87
2023/09/13 05:00:07;;;;;;;18.58;9.48;;;;;;;;;;4982285;28;98570;-86
2023/09/13 05:02:34;;;;;;;18.88;8.90;;;;;;;;;;4986449;28;99073;-85
2023/09/13 05:05:00;;;;;;;17.52;9.18;;;;;;;;;;4990363;28;99745;-86
2023/09/13 05:07:27;;;;;;;15.00;8.02;;;;;;;;;;4996935;28;98529;-85
2023/09/13 05:09:53;;;;;;;13.43;7.13;;;;;;;;;;4995161;28;100811;-86
2023/09/13 05:12:20;;;;;;;14.75;8.60;;;;;;;;;;4989786;28;99778;-86
2023/09/13 05:14:47;;;;;;;14.55;8.13;;;;;;;;;;4971179;28;99710;-85
2023/09/13 05:17:14;;;;;;;21.42;11.95;;;;;;;;;;4981379;28;100185;-86
2023/09/13 05:19:40;;;;;;;19.50;11.00;;;;;;;;;;4982914;28;98780;-86
2023/09/13 05:22:07;;;;;;;17.05;9.90;;;;;;;;;;4986869;28;98816;-86
2023/09/13 05:24:34;;;;;;;23.70;12.25;;;;;;;;;;4986950;28;99360;-85
2023/09/13 05:27:00;;;;;;;16.05;7.72;;;;;;;;;;4988845;28;99051;-87
2023/09/13 05:29:27;;;;;;;18.60;10.05;;;;;;;;;;4988687;28;98983;-88
2023/09/13 05:31:53;;;;;;;16.45;8.77;;;;;;;;;;4988612;28;98574;-87
2023/09/13 05:34:24;;;;;;;17.25;8.95;;;;;;;;;;4991312;28;99060;-87
2023/09/13 05:36:50;;;;;;;15.23;9.00;;;;;;;;;;4985420;28;99924;-88
2023/09/13 05:39:17;;;;;;;17.17;9.50;;;;;;;;;;4987556;28;98490;-87
2023/09/13 05:41:44;;;;;;;18.55;11.18;;;;;;;;;;4985923;28;100578;-86
2023/09/13 05:44:11;;;;;;;15.82;8.23;;;;;;;;;;4984783;28;100477;-86
2023/09/13 05:46:38;;;;;;;14.73;7.75;;;;;;;;;;4982852;28;98578;-87
2023/09/13 05:49:05;;;;;;;15.90;8.88;;;;;;;;;;4992391;28;100582;-86
2023/09/13 05:51:32;;;;;;;13.23;7.63;;;;;;;;;;4983422;28;98589;-87
2023/09/13 05:53:58;;;;;;;14.88;8.07;;;;;;;;;;4986262;28;100063;-87
2023/09/13 05:56:25;;;;;;;19.33;11.73;;;;;;;;;;4986414;28;99317;-86
2023/09/13 05:58:53;;;;;;;17.92;9.48;;;;;;;;;;4986126;28;98646;-86
2023/09/13 06:01:20;;;;;;;12.95;6.85;;;;;;;;;;4986487;28;99442;-86
2023/09/13 06:03:46;;;;;;;15.82;7.65;;;;;;;;;;4986978;28;99357;-87
2023/09/13 06:06:13;;;;;;;11.90;5.90;;;;;;;;;;4991927;28;98693;-86
2023/09/13 06:08:40;;;;;;;10.73;4.60;;;;;;;;;;4995449;28;99832;-86
2023/09/13 06:11:07;;;;;;;8.23;3.88;;;;;;;;;;4989928;28;99129;-86
2023/09/13 06:13:34;;;;;;;;;;;;;;;;;;4987317;28;99890;-86
2023/09/13 06:16:00;;;;;;;6.55;2.33;;;;;;;;;;4985648;28;112087;-85
2023/09/13 06:18:28;;;;;;;7.20;2.20;;;;;;;;;;4982777;28;98205;-86
2023/09/13 06:20:55;;;;;;;;;;;;;;;;;;4988430;28;98957;-90
2023/09/13 06:23:35;;;;;;;4.88;1.40;;;;;;;;;;4987110;28;109149;-88
2023/09/13 06:26:02;;;;;;;3.35;1.35;;;;;;;;;;4992627;28;100558;-88
2023/09/13 06:28:29;;;;;;;2.10;0.90;;;;;;;;;;4979615;28;99591;-88
2023/09/13 06:30:56;;;;;;;2.45;1.00;;;;;;;;;;4985346;28;99035;-86
2023/09/13 06:33:29;;;;;;;2.38;0.77;;;;;;;;;;4984553;28;101935;-89
2023/09/13 06:36:07;;;;;;;2.30;0.88;;;;;;;;;;4985184;28;99848;-89
2023/09/13 06:38:35;;;;;;;2.70;0.90;;;;;;;;;;4986624;28;98569;-87
2023/09/13 06:41:02;;;;;;;2.63;0.80;;;;;;;;;;4985847;28;98609;-86
2023/09/13 06:43:29;;;;;;;2.45;0.90;;;;;;;;;;4965189;28;101211;-87
2023/09/13 06:46:00;;;;;;;4.05;1.10;;;;;;;;;;4978765;28;98991;-86
2023/09/13 06:48:33;;;;;;;3.03;0.90;;;;;;;;;;4990815;28;98985;-85
2023/09/13 06:51:01;;;;;;;2.35;0.82;;;;;;;;;;4983837;28;100927;-86
2023/09/13 06:53:47;;;;;;;1.60;0.80;;;;;;;;;;4989500;28;98500;-86
2023/09/13 06:56:17;;;;;;;2.83;0.90;;;;;;;;;;4985438;28;101236;-87
2023/09/13 06:58:46;;;;;;;6.93;1.13;;;;;;;;;;4986314;28;98969;-82
2023/09/13 07:01:16;;;;;;;5.93;1.10;;;;;;;;;;4985461;28;101108;-84
2023/09/13 07:03:47;;;;;;;5.15;1.52;;;;;;;;;;4983789;28;100129;-81
2023/09/13 07:06:21;;;;;;;2.90;0.90;;;;;;;;;;4965533;28;98602;-82
2023/09/13 07:08:48;;;;;;;3.42;0.90;;;;;;;;;;4981530;28;99093;-82
2023/09/13 07:11:15;;;;;;;3.33;0.80;;;;;;;;;;4985090;28;99434;-82
2023/09/13 07:13:41;;;;;;;;;;;;;;;;;;4986258;28;98781;-81
2023/09/13 07:16:08;;;;;;;2.67;0.90;;;;;;;;;;4991625;28;114489;-82
2023/09/13 07:18:35;;;;;;;2.70;0.90;;;;;;;;;;4986363;28;98635;-82
2023/09/13 07:21:01;;;;;;;3.63;0.90;;;;;;;;;;4990854;28;98671;-82
2023/09/13 07:23:28;;;;;;;3.72;0.90;;;;;;;;;;4989808;28;99021;-82
2023/09/13 07:25:55;;;;;;;6.88;1.10;;;;;;;;;;4975602;28;98776;-81
2023/09/13 07:28:21;;;;;;;7.28;1.30;;;;;;;;;;4975555;28;99419;-81
2023/09/13 07:30:48;;;;;;;3.47;0.98;;;;;;;;;;4968296;28;99218;-82
2023/09/13 07:33:14;;;;;;;3.28;1.13;;;;;;;;;;4979575;28;100056;-82
2023/09/13 07:35:44;;;;;;;3.47;1.23;;;;;;;;;;5007960;28;98582;-83
2023/09/13 07:38:10;;;;;;;6.00;1.40;;;;;;;;;;5021606;28;98621;-82
2023/09/13 07:40:38;;;;;;;3.85;1.00;;;;;;;;;;5021968;28;99161;-82
2023/09/13 07:43:08;;;;;;;5.43;1.30;;;;;;;;;;5027122;28;98456;-82
2023/09/13 07:45:34;;;;;;;3.67;1.17;;;;;;;;;;5007256;28;98468;-82
2023/09/13 07:48:02;;;;;;;4.63;1.38;;;;;;;;;;5026503;28;98534;-82
2023/09/13 07:50:33;;;;;;;5.03;1.23;;;;;;;;;;5020880;28;99847;-83
2023/09/13 07:53:00;;;;;;;4.75;1.13;;;;;;;;;;5001553;28;98853;-82
2023/09/13 07:55:31;;;;;;;6.00;1.33;;;;;;;;;;5009656;28;98752;-82
2023/09/13 07:57:58;;;;;;;5.50;1.40;;;;;;;;;;5006450;28;99680;-82
2023/09/13 08:00:26;;;;;;;5.15;1.30;;;;;;;;;;5011732;28;98569;-82
2023/09/13 08:02:52;;;;;;;4.32;1.20;;;;;;;;;;5008554;28;99207;-82
2023/09/13 08:05:19;;;;;;;4.35;1.30;;;;;;;;;;4989784;28;99312;-83
2023/09/13 08:07:46;;;;;;;3.58;1.30;;;;;;;;;;5008836;28;99711;-83
2023/09/13 08:10:13;;;;;;;;;;;;;;;;;;5008563;28;99274;-83
2023/09/13 08:12:40;;;;;;;2.75;1.10;;;;;;;;;;4991191;28;98547;-82
2023/09/13 08:15:07;;;;;;;4.28;1.35;;;;;;;;;;4991266;28;99493;-84
2023/09/13 08:17:33;;;;;;;4.25;1.30;;;;;;;;;;4990557;28;99180;-81
2023/09/13 08:20:01;;;;;;;4.57;1.60;;;;;;;;;;5009986;28;99058;-82
2023/09/13 08:22:27;;;;;;;;;;;;;;;;;;5012568;28;98352;-82
2023/09/13 08:25:06;;;;;;;5.05;1.38;;;;;;;;;;5002499;28;98579;-83
2023/09/13 08:27:35;;;;;;;4.85;1.38;;;;;;;;;;5015387;28;99881;-81
2023/09/13 08:30:03;;;;;;;7.88;1.40;;;;;;;;;;5013708;28;99867;-82
2023/09/13 08:32:30;;;;;;;3.75;1.38;;;;;;;;;;5007510;28;98522;-81
2023/09/13 08:34:57;;;;;;;4.88;1.45;;;;;;;;;;4989406;28;98814;-85
2023/09/13 08:37:23;;;;;;;3.92;1.30;;;;;;;;;;4981728;28;99790;-83
2023/09/13 08:39:51;;;;;;;6.00;1.20;;;;;;;;;;5007876;28;99184;-83
2023/09/13 08:42:17;;;;;;;4.75;1.30;;;;;;;;;;5010620;28;98723;-83
2023/09/13 08:44:45;;;;;;;4.78;1.48;;;;;;;;;;4994636;28;99057;-82
2023/09/13 08:47:13;;;;;;;3.30;1.40;;;;;;;;;;5007478;28;98738;-81
2023/09/13 08:49:41;;;;;;;4.88;1.30;;;;;;;;;;5004346;28;99635;-81
2023/09/13 08:52:07;;;;;;;4.30;1.30;;;;;;;;;;4993815;28;98735;-81
2023/09/13 08:54:34;;;;;;;5.60;1.38;;;;;;;;;;4977500;28;101956;-81
2023/09/13 08:57:22;;;;;;;5.18;1.35;;;;;;;;;;4984693;28;100735;-81
2023/09/13 08:59:48;;;;;;;3.53;1.15;;;;;;;;;;4992187;28;98596;-81
2023/09/13 09:02:17;;;;;;;6.05;1.30;;;;;;;;;;5003529;28;99412;-91
2023/09/13 09:04:44;;;;;;;5.32;1.52;;;;;;;;;;4998262;28;99177;-81
2023/09/13 09:07:11;;;;;;;;;;;;;;;;;;4993108;28;100223;-81
2023/09/13 09:09:38;;;;;;;4.35;1.30;;;;;;;;;;5001589;28;127932;-80
2023/09/13 09:12:06;;;;;;;4.30;1.20;;;;;;;;;;5006092;28;97826;-82
2023/09/13 09:14:33;;;;;;;3.95;1.30;;;;;;;;;;4994749;28;99064;-81
2023/09/13 09:17:00;;;;;;;2.90;1.05;;;;;;;;;;5005587;28;99398;-82
2023/09/13 09:19:28;;;;;;;3.97;1.25;;;;;;;;;;5006235;28;99434;-82
2023/09/13 09:21:56;;;;;;;4.40;1.30;;;;;;;;;;5007173;28;100273;-82
2023/09/13 09:24:23;;;;;;;3.63;1.23;;;;;;;;;;4989434;28;101614;-81
2023/09/13 09:26:50;;;;;;;5.03;1.58;;;;;;;;;;5010303;28;98891;-81
2023/09/13 09:29:20;;;;;;;5.25;1.30;;;;;;;;;;4994590;28;99307;-82
2023/09/13 09:31:51;;;;;;;4.95;1.40;;;;;;;;;;5014818;28;98552;-82
2023/09/13 09:34:18;;;;;;;4.60;1.38;;;;;;;;;;4991590;28;99319;-82
2023/09/13 09:36:46;;;;;;;6.95;1.60;;;;;;;;;;4982596;28;99581;-82
2023/09/13 09:39:15;;;;;;;5.00;1.60;;;;;;;;;;4985623;28;98552;-82
2023/09/13 09:41:42;;;;;;;6.03;1.52;;;;;;;;;;4998443;28;98526;-83
2023/09/13 09:44:08;;;;;;;5.22;1.50;;;;;;;;;;4979281;28;102900;-83
2023/09/13 09:46:35;;;;;;;6.22;1.58;;;;;;;;;;4991616;28;98535;-81
2023/09/13 09:49:03;;;;;;;6.00;1.58;;;;;;;;;;5014189;28;98936;-82
2023/09/13 09:51:29;;;;;;;5.20;1.30;;;;;;;;;;5011631;28;98548;-84
2023/09/13 09:53:56;;;;;;;5.88;1.50;;;;;;;;;;5002233;28;98890;-83
2023/09/13 09:56:23;;;;;;;5.15;1.60;;;;;;;;;;4998488;28;99632;-82
2023/09/13 09:58:52;;;;;;;4.15;1.40;;;;;;;;;;4984543;28;99257;-83
2023/09/13 10:01:18;;;;;;;4.18;1.48;;;;;;;;;;5007780;28;99002;-83
2023/09/13 10:03:45;;;;;;;4.18;1.58;;;;;;;;;;5005726;28;99238;-83
2023/09/13 10:06:13;;;;;;;5.07;1.45;;;;;;;;;;4987608;28;98639;-83
2023/09/13 10:08:44;;;;;;;6.05;1.50;;;;;;;;;;5004684;28;99244;-83
2023/09/13 10:11:15;;;;;;;5.45;1.65;;;;;;;;;;5008531;28;99195;-83
2023/09/13 10:13:45;;;;;;;7.07;1.75;;;;;;;;;;5006549;28;99092;-83
2023/09/13 10:16:16;;;;;;;7.28;1.75;;;;;;;;;;4984634;28;100735;-85
2023/09/13 10:18:43;;;;;;;6.35;1.80;;;;;;;;;;4997702;28;98520;-85
2023/09/13 10:21:10;;;;;;;6.70;1.92;;;;;;;;;;5007251;28;99302;-87
2023/09/13 10:24:00;;;;;;;4.90;1.63;;;;;;;;;;5003372;28;99330;-86
2023/09/13 10:26:29;;;;;;;4.93;1.50;;;;;;;;;;4991050;28;97903;-87
2023/09/13 10:28:59;;;;;;;4.72;1.52;;;;;;;;;;4989261;28;98507;-85
2023/09/13 10:31:32;;;;;;;7.05;1.90;;;;;;;;;;4990148;28;99364;-85
2023/09/13 10:34:03;;;;;;;7.25;1.70;;;;;;;;;;4999275;28;100877;-87
2023/09/13 10:36:42;;;;;;;6.75;1.88;;;;;;;;;;4995476;28;100444;-86
2023/09/13 10:39:15;;;;;;;8.10;1.92;;;;;;;;;;4993243;28;98914;-86
2023/09/13 10:41:45;;;;;;;8.45;1.90;;;;;;;;;;4995757;28;98737;-86
2023/09/13 10:44:13;;;;;;;3.78;1.52;;;;;;;;;;4999921;28;99021;-88
2023/09/13 10:46:40;;;;;;;6.55;1.90;;;;;;;;;;4996367;28;99003;-85
2023/09/13 10:49:07;;;;;;;6.47;1.75;;;;;;;;;;4993488;28;99012;-86
2023/09/13 10:51:35;;;;;;;6.28;1.83;;;;;;;;;;5006441;28;98559;-87
2023/09/13 10:54:02;;;;;;;5.40;1.85;;;;;;;;;;4987502;28;98600;-86
2023/09/13 10:56:29;;;;;;;;;;;;;;;;;;5005651;28;99273;-86
2023/09/13 10:58:58;;;;;;;5.97;1.70;;;;;;;;;;4990513;28;99548;-86
2023/09/13 11:01:25;;;;;;;5.47;1.70;;;;;;;;;;4959684;28;102051;-86
2023/09/13 11:03:53;;;;;;;5.18;1.50;;;;;;;;;;5006052;28;99042;-86
2023/09/13 11:06:24;;;;;;;5.50;1.23;;;;;;;;;;4988049;28;98911;-86
2023/09/13 11:08:50;;;;;;;5.00;1.23;;;;;;;;;;4987415;28;99419;-86
2023/09/13 11:11:21;;;;;;;5.60;1.40;;;;;;;;;;4987709;28;102003;-86
2023/09/13 11:13:52;;;;;;;4.57;1.40;;;;;;;;;;5000209;28;99100;-86
2023/09/13 11:16:21;;;;;;;4.38;1.30;;;;;;;;;;5008886;28;98949;-86
2023/09/13 11:18:49;;;;;;;4.45;1.30;;;;;;;;;;4986827;28;100788;-86
2023/09/13 11:21:20;;;;;;;4.05;1.20;;;;;;;;;;5005688;28;98952;-86
2023/09/13 11:23:50;;;;;;;5.30;1.48;;;;;;;;;;4985562;28;103695;-86
2023/09/13 11:26:38;;;;;;;5.13;1.50;;;;;;;;;;4991769;28;98584;-85
2023/09/13 11:29:05;;;;;;;;;;;;;;;;;;5006251;28;99634;-86
2023/09/13 11:31:31;;;;;;;4.80;1.60;;;;;;;;;;5000253;28;127064;-85
2023/09/13 11:33:59;;;;;;;5.63;1.30;;;;;;;;;;5008875;28;99053;-85
2023/09/13 11:36:27;;;;;;;;;;;;;;;;;;5000001;28;98952;-84
2023/09/13 11:38:55;;;;;;;6.15;1.50;;;;;;;;;;4986231;28;102389;-85
2023/09/13 11:41:22;;;;;;;5.97;1.42;;;;;;;;;;4996872;28;99560;-83
2023/09/13 11:43:50;;;;;;;4.75;1.42;;;;;;;;;;5012257;28;99265;-84
2023/09/13 11:46:29;;;;;;;5.78;1.50;;;;;;;;;;5002080;28;99191;-84
2023/09/13 11:48:57;;;;;;;5.00;1.25;;;;;;;;;;5027194;27;99029;-84
2023/09/13 11:51:31;;;;;;;3.88;1.30;;;;;;;;;;5029719;27;98520;-84
2023/09/13 11:54:18;;;;;;;5.07;1.55;;;;;;;;;;5024966;27;98467;-84
2023/09/13 11:56:48;;;;;;;4.85;1.33;;;;;;;;;;5028273;27;98932;-85
2023/09/13 11:59:16;;;;;;;4.68;1.40;;;;;;;;;;5022753;28;98619;-85
2023/09/13 12:01:45;;;;;;;6.65;1.90;;;;;;;;;;5024005;28;98511;-84
2023/09/13 12:04:15;;;;;;;6.47;1.90;;;;;;;;;;5016270;28;99142;-84
2023/09/13 12:06:46;;;;;;;5.32;1.90;;;;;;;;;;5006100;28;97976;-83
2023/09/13 12:09:16;;;;;;;5.70;1.77;;;;;;;;;;5008722;28;98517;-83
2023/09/13 12:11:53;;;;;;;6.53;1.73;;;;;;;;;;5004954;28;98697;-83
2023/09/13 12:14:25;;;;;;;5.32;1.70;;;;;;;;;;5016300;28;99446;-85
2023/09/13 12:17:12;;;;;;;6.03;1.95;;;;;;;;;;5014135;28;98489;-84
2023/09/13 12:19:40;;;;;;;5.45;1.85;;;;;;;;;;5020185;28;98362;-86
2023/09/13 12:22:11;;;;;;;6.35;1.85;;;;;;;;;;5021715;28;98458;-84
2023/09/13 12:24:48;;;;;;;4.68;1.77;;;;;;;;;;4999194;28;101849;-84
2023/09/13 12:27:15;;;;;;;5.25;1.73;;;;;;;;;;5023740;28;98593;-86
2023/09/13 12:29:46;;;;;;;6.15;1.90;;;;;;;;;;4991938;28;101503;-86
2023/09/13 12:32:13;;;;;;;4.57;1.70;;;;;;;;;;4995228;28;98597;-87
2023/09/13 12:34:40;;;;;;;4.18;1.67;;;;;;;;;;4989463;28;99213;-87
2023/09/13 12:37:06;;;;;;;5.18;1.50;;;;;;;;;;5009274;28;98513;-87
2023/09/13 12:39:33;;;;;;;4.70;1.70;;;;;;;;;;4989786;28;99875;-86
2023/09/13 12:42:04;;;;;;;6.57;1.70;;;;;;;;;;4990490;28;98650;-86
2023/09/13 12:44:32;;;;;;;6.05;1.77;;;;;;;;;;4993068;28;101653;-88
2023/09/13 12:46:58;;;;;;;4.65;1.60;;;;;;;;;;4976681;28;98928;-86
2023/09/13 12:49:25;;;;;;;6.45;1.60;;;;;;;;;;4995737;28;99249;-87
2023/09/13 12:51:52;;;;;;;4.82;1.50;;;;;;;;;;4998310;28;99135;-88
2023/09/13 12:54:19;;;;;;;;;;;;;;;;;;4995465;28;99070;-87
2023/09/13 12:56:46;;;;;;;5.90;1.60;;;;;;;;;;4999039;28;101879;-86
2023/09/13 12:59:12;;;;;;;6.22;1.77;;;;;;;;;;5005841;28;99191;-87
2023/09/13 13:01:39;;;;;;;6.60;1.75;;;;;;;;;;5007828;28;99001;-87
2023/09/13 13:04:06;;;;;;;5.35;1.80;;;;;;;;;;5006968;28;99350;-88
2023/09/13 13:06:52;;;;;;;4.75;1.73;;;;;;;;;;5010990;28;100166;-87
2023/09/13 13:09:21;;;;;;;5.28;1.67;;;;;;;;;;4976622;28;99485;-87
2023/09/13 13:11:49;;;;;;;4.63;1.50;;;;;;;;;;5000855;28;99015;-86
2023/09/13 13:14:17;;;;;;;3.45;1.42;;;;;;;;;;4996429;28;99006;-86
2023/09/13 13:16:50;;;;;;;5.35;1.70;;;;;;;;;;4997477;28;100320;-87
2023/09/13 13:19:25;;;;;;;5.93;1.90;;;;;;;;;;5005599;28;99307;-87
2023/09/13 13:21:53;;;;;;;5.47;1.60;;;;;;;;;;5011776;28;97714;-85
2023/09/13 13:24:23;;;;;;;5.15;1.55;;;;;;;;;;4995305;28;101035;-86
2023/09/13 13:26:50;;;;;;;4.35;1.50;;;;;;;;;;5013363;28;98539;-87
2023/09/13 13:29:17;;;;;;;5.35;1.63;;;;;;;;;;5008973;28;99680;-86
2023/09/13 13:31:44;;;;;;;5.38;1.80;;;;;;;;;;4987477;28;102251;-87
2023/09/13 13:34:10;;;;;;;4.07;1.48;;;;;;;;;;5009757;28;98533;-84
2023/09/13 13:36:37;;;;;;;;;;;;;;;;;;4989089;28;98696;-85
2023/09/13 13:39:06;;;;;;;4.55;1.40;;;;;;;;;;4989104;28;99134;-85
2023/09/13 13:41:33;;;;;;;4.45;1.58;;;;;;;;;;5008234;28;99129;-85
2023/09/13 13:44:00;;;;;;;4.28;1.40;;;;;;;;;;5010800;28;99147;-85
2023/09/13 13:46:28;;;;;;;3.80;1.48;;;;;;;;;;4998717;28;97918;-85
2023/09/13 13:48:55;;;;;;;3.70;1.45;;;;;;;;;;5007103;28;98709;-85
2023/09/13 13:51:22;;;;;;;4.93;1.40;;;;;;;;;;4990990;28;98892;-85
2023/09/13 13:53:48;;;;;;;3.80;1.42;;;;;;;;;;5005400;28;99912;-85
2023/09/13 13:56:15;;;;;;;5.18;1.60;;;;;;;;;;4987617;28;100659;-85
2023/09/13 13:58:42;;;;;;;5.07;1.65;;;;;;;;;;4997496;28;99237;-85
2023/09/13 14:01:08;;;;;;;3.90;1.45;;;;;;;;;;5000346;28;98586;-85
2023/09/13 14:03:35;;;;;;;5.38;1.58;;;;;;;;;;5007222;28;98906;-85
2023/09/13 14:06:05;;;;;;;3.67;1.40;;;;;;;;;;4988597;28;100462;-85
2023/09/13 14:08:32;;;;;;;2.72;1.30;;;;;;;;;;5006818;28;98496;-85
2023/09/13 14:11:00;;;;;;;;;;;;;;;;;;5012852;28;98980;-85
2023/09/13 14:13:27;;;;;;;5.13;1.40;;;;;;;;;;4993033;28;112852;-86
2023/09/13 14:15:54;;;;;;;3.60;1.50;;;;;;;;;;5006345;28;98951;-85
2023/09/13 14:18:21;;;;;;;4.85;1.50;;;;;;;;;;4987053;28;103124;-86
2023/09/13 14:20:48;;;;;;;4.70;1.60;;;;;;;;;;5007723;28;98715;-85
2023/09/13 14:23:14;;;;;;;6.85;1.60;;;;;;;;;;5007947;28;99212;-85
2023/09/13 14:25:41;;;;;;;;;;;;;;;;;;5009527;28;98897;-86
2023/09/13 14:28:09;;;;;;;3.97;1.33;;;;;;;;;;5007960;28;98494;-86
2023/09/13 14:30:37;;;;;;;4.35;1.50;;;;;;;;;;4987755;28;98672;-85
2023/09/13 14:33:04;;;;;;;3.55;1.55;;;;;;;;;;4987928;28;98543;-85
2023/09/13 14:35:31;;;;;;;4.05;1.50;;;;;;;;;;5009987;28;98198;-85
2023/09/13 14:37:58;;;;;;;;;;;;;;;;;;5006883;28;99540;-85
2023/09/13 14:40:25;;;;;;;4.22;1.48;;;;;;;;;;5011155;28;110395;-85
2023/09/13 14:42:52;;;;;;;4.20;1.45;;;;;;;;;;5007816;28;99314;-85
2023/09/13 14:45:19;;;;;;;4.88;1.50;;;;;;;;;;5022132;27;99136;-85
2023/09/13 14:47:45;;;;;;;4.78;1.55;;;;;;;;;;5021876;28;98833;-87